UKLULHDC

Guest
Details From UKLU - UZHHOROD INTL
To LHDC - DEBRECEN
Flight Number -
Tags generated
Created
Modified
Stats Distance 74 nm / 137 km
Max Altitude 200 ft / 61 m
Waypoints 3
Social Downloads 1
Likes 0
Share VATSIM

Download

Looking for another format? Having issues loading an existing format? Contact us
Advertisement - Login to hide

Notes

Basic altitude profile: - Ascent Rate: 2500ft/min - Ascent Speed: 250kts - Cruise Altitude: 35000ft - Cruise Speed: 420kts - Descent Rate: 1500ft/min - Descent Speed: 250kts Options: - Use NATs: yes - Use PACOTS: yes - Use low airways: yes - Use high airways: yes

Route

UKLU LASOT LHDC

ID Type Via Altitude Latitude Longitude Leg Dist Tot Dist Heading (true) Name
O UKLU APT - 0 ft / 0 m 48.63428˚ 22.26336˚ - 0 nm - UZHHOROD INTL
LASOT FIX - 200 ft / 61 m 48.63472˚ 22.24583˚ 0 nm 0 nm 272° / 272° -
O LHDC APT - 0 ft / 0 m 47.48942˚ 21.61458˚ 73 nm 73 nm 200° / 200° DEBRECEN

Altitude Profile

Advertisement - Login to hide

UKLU

Details ICAO UKLU (UDJ)
Name UZHHOROD INTL
Region Ukraine
Timezone Europe/Uzhgorod (UTC+2.0)
Stats Elevation 383 ft / 117 m (AMSL)
Location 48.634278° 22.263355°
Runways 1
Magnetic Variation 5.543° E

METAR

UKLU 161900Z 00000MPS 9999 OVC040 01/M00 Q1011 NOSIG

Decode

TAF

Not found

Departure Runways

ID Width Length Bearing (true) Bearing (mag) Surface Threshold Offset Overrun Length
10 131 ft / 40 m 6,682 ft / 2,037 m 103.38° 97.84° Concrete 0 ft / 0 m 0 ft / 0 m
28 131 ft / 40 m 6,682 ft / 2,037 m 283.40° 277.86° Concrete 1,765 ft / 538 m 0 ft / 0 m

LHDC

Details ICAO LHDC (DEB)
Name DEBRECEN
Region Hungary
Timezone Europe/Budapest (UTC+1.0)
Stats Elevation 359 ft / 109 m (AMSL)
Location 47.489417° 21.614576°
Runways 2
Magnetic Variation 5.245° E

METAR

LHDC 161745Z 26003KT 9999 OVC030 02/01 Q1011 NOSIG

Decode

TAF

Not found

Destination Runways

ID Width Length Bearing (true) Bearing (mag) Surface Threshold Offset Overrun Length
05L 230 ft / 70 m 8,081 ft / 2,463 m 47.94° 42.69° Concrete 0 ft / 0 m 0 ft / 0 m
05R 131 ft / 40 m 8,186 ft / 2,495 m 47.82° 42.57° Concrete 0 ft / 0 m 49 ft / 15 m
23L 131 ft / 40 m 8,186 ft / 2,495 m 227.84° 222.59° Concrete 979 ft / 298 m 49 ft / 15 m
23R 230 ft / 70 m 8,081 ft / 2,463 m 227.95° 222.70° Concrete 0 ft / 0 m 0 ft / 0 m

Approach Navaids

Runway Type Ident Frequency Range Bearing (true) Bearing (mag) Slope Elevation
05R Localiser DCN 110.10 MHz 18 nm / 33 km 47.87° 42.62° - 359 ft / 109 m (AMSL)
05R Glidescope DCN 110.10 MHz 10 nm / 19 km 47.83° 42.59° 3.00° 359 ft / 109 m (AMSL)